sensor_id;sensor_type;location;lat;lon;timestamp;P1;durP1;ratioP1;P2;durP2;ratioP2
8982;SDS011;20979;59.850;10.660;2023-09-08T00:00:37;6.17;;;5.57;;
8982;SDS011;20979;59.850;10.660;2023-09-08T00:03:20;5.77;;;5.27;;
8982;SDS011;20979;59.850;10.660;2023-09-08T00:05:49;5.80;;;5.40;;
8982;SDS011;20979;59.850;10.660;2023-09-08T00:08:25;6.43;;;5.77;;
8982;SDS011;20979;59.850;10.660;2023-09-08T00:10:54;5.83;;;5.33;;
8982;SDS011;20979;59.850;10.660;2023-09-08T00:13:22;6.03;;;5.53;;
8982;SDS011;20979;59.850;10.660;2023-09-08T00:16:09;6.30;;;5.70;;
8982;SDS011;20979;59.850;10.660;2023-09-08T00:18:48;6.93;;;6.30;;
8982;SDS011;20979;59.850;10.660;2023-09-08T00:21:30;7.17;;;6.53;;
8982;SDS011;20979;59.850;10.660;2023-09-08T00:23:57;7.67;;;6.87;;
8982;SDS011;20979;59.850;10.660;2023-09-08T00:26:39;6.97;;;6.33;;
8982;SDS011;20979;59.850;10.660;2023-09-08T00:29:12;8.97;;;7.37;;
8982;SDS011;20979;59.850;10.660;2023-09-08T00:31:53;10.27;;;8.53;;
8982;SDS011;20979;59.850;10.660;2023-09-08T00:34:22;8.60;;;7.70;;
8982;SDS011;20979;59.850;10.660;2023-09-08T00:36:55;9.90;;;8.17;;
8982;SDS011;20979;59.850;10.660;2023-09-08T00:39:31;9.00;;;8.13;;
8982;SDS011;20979;59.850;10.660;2023-09-08T00:42:07;9.60;;;8.60;;
8982;SDS011;20979;59.850;10.660;2023-09-08T00:44:34;10.47;;;8.63;;
8982;SDS011;20979;59.850;10.660;2023-09-08T00:47:05;10.70;;;8.80;;
8982;SDS011;20979;59.850;10.660;2023-09-08T00:49:50;10.57;;;8.53;;
8982;SDS011;20979;59.850;10.660;2023-09-08T00:55:07;9.40;;;8.40;;
8982;SDS011;20979;59.850;10.660;2023-09-08T00:57:55;9.03;;;8.13;;
8982;SDS011;20979;59.850;10.660;2023-09-08T01:03:45;10.07;;;9.03;;
8982;SDS011;20979;59.850;10.660;2023-09-08T01:06:16;11.77;;;9.03;;
8982;SDS011;20979;59.850;10.660;2023-09-08T01:08:57;10.07;;;8.67;;
8982;SDS011;20979;59.850;10.660;2023-09-08T01:14:23;10.53;;;9.43;;
8982;SDS011;20979;59.850;10.660;2023-09-08T01:16:59;10.07;;;9.07;;
8982;SDS011;20979;59.850;10.660;2023-09-08T01:19:27;9.73;;;8.40;;
8982;SDS011;20979;59.850;10.660;2023-09-08T01:22:17;9.07;;;8.10;;
8982;SDS011;20979;59.850;10.660;2023-09-08T01:25:11;10.83;;;9.10;;
8982;SDS011;20979;59.850;10.660;2023-09-08T01:27:43;11.17;;;9.33;;
8982;SDS011;20979;59.850;10.660;2023-09-08T01:30:13;10.07;;;8.80;;
8982;SDS011;20979;59.850;10.660;2023-09-08T01:32:47;12.97;;;9.03;;
8982;SDS011;20979;59.850;10.660;2023-09-08T01:35:18;10.40;;;9.30;;
8982;SDS011;20979;59.850;10.660;2023-09-08T01:38:07;11.50;;;9.80;;
8982;SDS011;20979;59.850;10.660;2023-09-08T01:41:04;10.40;;;8.70;;
8982;SDS011;20979;59.850;10.660;2023-09-08T01:43:35;12.00;;;9.60;;
8982;SDS011;20979;59.850;10.660;2023-09-08T01:46:03;10.23;;;9.23;;
8982;SDS011;20979;59.850;10.660;2023-09-08T01:48:51;9.67;;;8.73;;
8982;SDS011;20979;59.850;10.660;2023-09-08T01:51:26;10.00;;;9.00;;
8982;SDS011;20979;59.850;10.660;2023-09-08T01:54:07;10.00;;;9.00;;
8982;SDS011;20979;59.850;10.660;2023-09-08T01:56:36;11.83;;;9.30;;
8982;SDS011;20979;59.850;10.660;2023-09-08T01:59:08;9.87;;;8.87;;
8982;SDS011;20979;59.850;10.660;2023-09-08T02:01:35;9.90;;;8.90;;
8982;SDS011;20979;59.850;10.660;2023-09-08T02:04:06;9.80;;;8.90;;
8982;SDS011;20979;59.850;10.660;2023-09-08T02:06:44;9.63;;;8.57;;
8982;SDS011;20979;59.850;10.660;2023-09-08T02:09:13;11.43;;;9.10;;
8982;SDS011;20979;59.850;10.660;2023-09-08T02:11:43;10.60;;;9.47;;
8982;SDS011;20979;59.850;10.660;2023-09-08T02:14:28;10.00;;;8.93;;
8982;SDS011;20979;59.850;10.660;2023-09-08T02:16:56;10.63;;;9.23;;
8982;SDS011;20979;59.850;10.660;2023-09-08T02:19:23;10.30;;;8.60;;
8982;SDS011;20979;59.850;10.660;2023-09-08T02:22:04;10.47;;;9.37;;
8982;SDS011;20979;59.850;10.660;2023-09-08T02:24:35;10.23;;;8.90;;
8982;SDS011;20979;59.850;10.660;2023-09-08T02:27:16;11.00;;;9.67;;
8982;SDS011;20979;59.850;10.660;2023-09-08T02:29:47;10.60;;;9.50;;
8982;SDS011;20979;59.850;10.660;2023-09-08T02:32:15;10.67;;;9.60;;
8982;SDS011;20979;59.850;10.660;2023-09-08T02:34:59;12.90;;;10.00;;
8982;SDS011;20979;59.850;10.660;2023-09-08T02:37:26;10.67;;;9.57;;
8982;SDS011;20979;59.850;10.660;2023-09-08T02:39:54;11.33;;;10.23;;
8982;SDS011;20979;59.850;10.660;2023-09-08T02:45:12;10.93;;;9.77;;
8982;SDS011;20979;59.850;10.660;2023-09-08T02:47:40;11.23;;;10.03;;
8982;SDS011;20979;59.850;10.660;2023-09-08T02:50:07;11.97;;;9.93;;
8982;SDS011;20979;59.850;10.660;2023-09-08T02:52:40;11.00;;;9.83;;
8982;SDS011;20979;59.850;10.660;2023-09-08T02:55:22;11.63;;;10.10;;
8982;SDS011;20979;59.850;10.660;2023-09-08T02:58:05;12.57;;;10.23;;
8982;SDS011;20979;59.850;10.660;2023-09-08T03:00:34;11.97;;;9.77;;
8982;SDS011;20979;59.850;10.660;2023-09-08T03:03:15;13.13;;;9.63;;
8982;SDS011;20979;59.850;10.660;2023-09-08T03:05:56;12.20;;;10.03;;
8982;SDS011;20979;59.850;10.660;2023-09-08T03:08:33;10.87;;;9.07;;
8982;SDS011;20979;59.850;10.660;2023-09-08T03:11:02;10.53;;;9.37;;
8982;SDS011;20979;59.850;10.660;2023-09-08T03:13:30;10.57;;;9.13;;
8982;SDS011;20979;59.850;10.660;2023-09-08T03:16:15;9.50;;;8.57;;
8982;SDS011;20979;59.850;10.660;2023-09-08T03:18:48;12.50;;;9.33;;
8982;SDS011;20979;59.850;10.660;2023-09-08T03:21:15;11.63;;;9.40;;
8982;SDS011;20979;59.850;10.660;2023-09-08T03:23:44;11.23;;;9.37;;
8982;SDS011;20979;59.850;10.660;2023-09-08T03:26:15;11.17;;;9.10;;
8982;SDS011;20979;59.850;10.660;2023-09-08T03:28:48;9.90;;;8.90;;
8982;SDS011;20979;59.850;10.660;2023-09-08T03:31:17;11.07;;;8.90;;
8982;SDS011;20979;59.850;10.660;2023-09-08T03:33:50;9.80;;;8.80;;
8982;SDS011;20979;59.850;10.660;2023-09-08T03:36:18;11.73;;;9.17;;
8982;SDS011;20979;59.850;10.660;2023-09-08T03:38:59;10.83;;;9.13;;
8982;SDS011;20979;59.850;10.660;2023-09-08T03:41:27;10.37;;;8.83;;
8982;SDS011;20979;59.850;10.660;2023-09-08T03:43:54;11.03;;;9.20;;
8982;SDS011;20979;59.850;10.660;2023-09-08T03:46:23;10.70;;;9.43;;
8982;SDS011;20979;59.850;10.660;2023-09-08T03:48:51;11.10;;;8.97;;
8982;SDS011;20979;59.850;10.660;2023-09-08T03:51:29;10.63;;;9.40;;
8982;SDS011;20979;59.850;10.660;2023-09-08T03:53:56;11.73;;;9.67;;
8982;SDS011;20979;59.850;10.660;2023-09-08T03:56:31;9.80;;;8.80;;
8982;SDS011;20979;59.850;10.660;2023-09-08T03:59:08;12.70;;;9.70;;
8982;SDS011;20979;59.850;10.660;2023-09-08T04:07:13;11.20;;;9.27;;
8982;SDS011;20979;59.850;10.660;2023-09-08T04:09:52;10.30;;;9.23;;
8982;SDS011;20979;59.850;10.660;2023-09-08T04:12:48;11.80;;;9.00;;
8982;SDS011;20979;59.850;10.660;2023-09-08T04:15:32;11.57;;;9.23;;
8982;SDS011;20979;59.850;10.660;2023-09-08T04:17:59;11.87;;;9.53;;
8982;SDS011;20979;59.850;10.660;2023-09-08T04:20:29;11.20;;;10.00;;
8982;SDS011;20979;59.850;10.660;2023-09-08T04:23:01;10.03;;;9.03;;
8982;SDS011;20979;59.850;10.660;2023-09-08T04:25:28;10.30;;;8.80;;
8982;SDS011;20979;59.850;10.660;2023-09-08T04:27:59;9.37;;;8.30;;
8982;SDS011;20979;59.850;10.660;2023-09-08T04:30:27;9.17;;;8.17;;
8982;SDS011;20979;59.850;10.660;2023-09-08T04:32:57;9.03;;;7.67;;
8982;SDS011;20979;59.850;10.660;2023-09-08T04:35:25;8.63;;;7.70;;
8982;SDS011;20979;59.850;10.660;2023-09-08T04:43:27;9.83;;;7.63;;
8982;SDS011;20979;59.850;10.660;2023-09-08T04:46:05;9.10;;;7.90;;
8982;SDS011;20979;59.850;10.660;2023-09-08T04:48:46;8.80;;;7.90;;
8982;SDS011;20979;59.850;10.660;2023-09-08T04:51:20;10.20;;;7.80;;
8982;SDS011;20979;59.850;10.660;2023-09-08T04:53:55;9.43;;;8.47;;
8982;SDS011;20979;59.850;10.660;2023-09-08T04:56:43;10.80;;;9.07;;
8982;SDS011;20979;59.850;10.660;2023-09-08T05:02:17;10.37;;;9.03;;
8982;SDS011;20979;59.850;10.660;2023-09-08T05:04:50;8.60;;;7.70;;
8982;SDS011;20979;59.850;10.660;2023-09-08T05:07:20;10.67;;;8.00;;
8982;SDS011;20979;59.850;10.660;2023-09-08T05:10:03;8.20;;;7.40;;
8982;SDS011;20979;59.850;10.660;2023-09-08T05:12:34;8.77;;;7.67;;
8982;SDS011;20979;59.850;10.660;2023-09-08T05:15:02;8.43;;;7.63;;
8982;SDS011;20979;59.850;10.660;2023-09-08T05:17:38;7.97;;;7.17;;
8982;SDS011;20979;59.850;10.660;2023-09-08T05:20:09;8.87;;;7.97;;
8982;SDS011;20979;59.850;10.660;2023-09-08T05:22:36;8.97;;;8.07;;
8982;SDS011;20979;59.850;10.660;2023-09-08T05:25:13;9.20;;;8.30;;
8982;SDS011;20979;59.850;10.660;2023-09-08T05:27:44;11.73;;;9.00;;
8982;SDS011;20979;59.850;10.660;2023-09-08T05:30:26;9.70;;;8.10;;
8982;SDS011;20979;59.850;10.660;2023-09-08T05:32:59;9.03;;;7.97;;
8982;SDS011;20979;59.850;10.660;2023-09-08T05:35:30;9.60;;;8.07;;
8982;SDS011;20979;59.850;10.660;2023-09-08T05:38:14;8.37;;;7.37;;
8982;SDS011;20979;59.850;10.660;2023-09-08T05:40:56;11.20;;;8.50;;
8982;SDS011;20979;59.850;10.660;2023-09-08T05:43:40;8.50;;;7.67;;
8982;SDS011;20979;59.850;10.660;2023-09-08T05:46:07;9.10;;;7.83;;
8982;SDS011;20979;59.850;10.660;2023-09-08T05:51:54;8.63;;;7.83;;
8982;SDS011;20979;59.850;10.660;2023-09-08T05:54:27;7.80;;;7.00;;
8982;SDS011;20979;59.850;10.660;2023-09-08T05:56:56;8.33;;;7.20;;
8982;SDS011;20979;59.850;10.660;2023-09-08T05:59:25;10.63;;;8.37;;
8982;SDS011;20979;59.850;10.660;2023-09-08T06:02:06;8.17;;;6.80;;
8982;SDS011;20979;59.850;10.660;2023-09-08T06:04:52;9.80;;;7.63;;
8982;SDS011;20979;59.850;10.660;2023-09-08T06:07:32;8.13;;;7.27;;
8982;SDS011;20979;59.850;10.660;2023-09-08T06:10:07;9.63;;;8.27;;
8982;SDS011;20979;59.850;10.660;2023-09-08T06:15:40;8.47;;;7.00;;
8982;SDS011;20979;59.850;10.660;2023-09-08T06:21:05;7.97;;;7.07;;
8982;SDS011;20979;59.850;10.660;2023-09-08T06:23:47;8.27;;;7.00;;
8982;SDS011;20979;59.850;10.660;2023-09-08T06:26:17;8.93;;;7.10;;
8982;SDS011;20979;59.850;10.660;2023-09-08T06:28:51;9.07;;;7.43;;
8982;SDS011;20979;59.850;10.660;2023-09-08T06:31:24;7.83;;;7.03;;
8982;SDS011;20979;59.850;10.660;2023-09-08T06:33:52;8.00;;;7.20;;
8982;SDS011;20979;59.850;10.660;2023-09-08T06:36:46;7.70;;;6.90;;
8982;SDS011;20979;59.850;10.660;2023-09-08T06:39:25;7.40;;;6.70;;
8982;SDS011;20979;59.850;10.660;2023-09-08T06:45:20;7.30;;;6.60;;
8982;SDS011;20979;59.850;10.660;2023-09-08T06:47:48;7.93;;;7.13;;
8982;SDS011;20979;59.850;10.660;2023-09-08T06:50:20;7.50;;;6.73;;
8982;SDS011;20979;59.850;10.660;2023-09-08T06:52:48;7.60;;;6.87;;
8982;SDS011;20979;59.850;10.660;2023-09-08T06:55:20;8.47;;;7.40;;
8982;SDS011;20979;59.850;10.660;2023-09-08T06:57:48;8.67;;;6.90;;
8982;SDS011;20979;59.850;10.660;2023-09-08T07:00:16;8.10;;;7.30;;
8982;SDS011;20979;59.850;10.660;2023-09-08T07:02:50;7.37;;;6.53;;
8982;SDS011;20979;59.850;10.660;2023-09-08T07:05:37;8.17;;;6.60;;
8982;SDS011;20979;59.850;10.660;2023-09-08T07:08:08;7.10;;;6.40;;
8982;SDS011;20979;59.850;10.660;2023-09-08T07:10:38;7.47;;;6.77;;
8982;SDS011;20979;59.850;10.660;2023-09-08T07:13:06;8.53;;;7.20;;
8982;SDS011;20979;59.850;10.660;2023-09-08T07:15:35;9.63;;;6.80;;
8982;SDS011;20979;59.850;10.660;2023-09-08T07:18:14;8.67;;;7.83;;
8982;SDS011;20979;59.850;10.660;2023-09-08T07:21:01;7.80;;;7.00;;
8982;SDS011;20979;59.850;10.660;2023-09-08T07:23:47;7.63;;;6.83;;
8982;SDS011;20979;59.850;10.660;2023-09-08T07:26:15;7.87;;;7.00;;
8982;SDS011;20979;59.850;10.660;2023-09-08T07:28:46;7.80;;;6.97;;
8982;SDS011;20979;59.850;10.660;2023-09-08T07:31:17;9.10;;;7.77;;
8982;SDS011;20979;59.850;10.660;2023-09-08T07:33:44;8.20;;;7.10;;
8982;SDS011;20979;59.850;10.660;2023-09-08T07:36:19;9.93;;;7.00;;
8982;SDS011;20979;59.850;10.660;2023-09-08T07:38:47;8.10;;;7.03;;
8982;SDS011;20979;59.850;10.660;2023-09-08T07:41:26;8.30;;;7.40;;
8982;SDS011;20979;59.850;10.660;2023-09-08T07:44:11;8.67;;;7.43;;
8982;SDS011;20979;59.850;10.660;2023-09-08T07:46:49;8.20;;;7.40;;
8982;SDS011;20979;59.850;10.660;2023-09-08T07:49:21;13.43;;;7.30;;
8982;SDS011;20979;59.850;10.660;2023-09-08T07:51:52;7.47;;;6.53;;
8982;SDS011;20979;59.850;10.660;2023-09-08T07:54:22;8.03;;;6.77;;
8982;SDS011;20979;59.850;10.660;2023-09-08T07:57:08;8.13;;;6.87;;
8982;SDS011;20979;59.850;10.660;2023-09-08T07:59:36;8.17;;;7.07;;
8982;SDS011;20979;59.850;10.660;2023-09-08T08:04:42;8.40;;;6.63;;
8982;SDS011;20979;59.850;10.660;2023-09-08T08:07:11;11.23;;;6.70;;
8982;SDS011;20979;59.850;10.660;2023-09-08T08:09:55;10.07;;;7.63;;
8982;SDS011;20979;59.850;10.660;2023-09-08T08:12:27;7.10;;;6.37;;
8982;SDS011;20979;59.850;10.660;2023-09-08T08:14:54;7.90;;;6.67;;
8982;SDS011;20979;59.850;10.660;2023-09-08T08:17:24;7.43;;;6.73;;
8982;SDS011;20979;59.850;10.660;2023-09-08T08:19:58;7.93;;;6.87;;
8982;SDS011;20979;59.850;10.660;2023-09-08T08:22:32;10.20;;;7.60;;
8982;SDS011;20979;59.850;10.660;2023-09-08T08:25:13;8.20;;;6.97;;
8982;SDS011;20979;59.850;10.660;2023-09-08T08:27:58;10.47;;;7.50;;
8982;SDS011;20979;59.850;10.660;2023-09-08T08:30:26;8.40;;;6.97;;
8982;SDS011;20979;59.850;10.660;2023-09-08T08:32:54;9.27;;;7.73;;
8982;SDS011;20979;59.850;10.660;2023-09-08T08:35:36;9.47;;;7.37;;
8982;SDS011;20979;59.850;10.660;2023-09-08T08:38:06;9.80;;;7.53;;
8982;SDS011;20979;59.850;10.660;2023-09-08T08:40:37;9.03;;;7.10;;
8982;SDS011;20979;59.850;10.660;2023-09-08T08:43:16;10.37;;;8.30;;
8982;SDS011;20979;59.850;10.660;2023-09-08T08:45:44;9.27;;;8.27;;
8982;SDS011;20979;59.850;10.660;2023-09-08T08:48:15;10.83;;;7.93;;
8982;SDS011;20979;59.850;10.660;2023-09-08T08:50:52;8.67;;;7.53;;
8982;SDS011;20979;59.850;10.660;2023-09-08T08:56:40;9.80;;;8.43;;
8982;SDS011;20979;59.850;10.660;2023-09-08T08:58:55;10.47;;;7.83;;
8982;SDS011;20979;59.850;10.660;2023-09-08T09:01:39;9.33;;;7.80;;
8982;SDS011;20979;59.850;10.660;2023-09-08T09:04:19;8.43;;;7.47;;
8982;SDS011;20979;59.850;10.660;2023-09-08T09:06:46;9.43;;;8.13;;
8982;SDS011;20979;59.850;10.660;2023-09-08T09:09:16;8.50;;;7.70;;
8982;SDS011;20979;59.850;10.660;2023-09-08T09:11:43;9.03;;;7.70;;
8982;SDS011;20979;59.850;10.660;2023-09-08T09:14:12;8.80;;;7.90;;
8982;SDS011;20979;59.850;10.660;2023-09-08T09:19:32;9.23;;;8.00;;
8982;SDS011;20979;59.850;10.660;2023-09-08T09:22:00;9.50;;;8.47;;
8982;SDS011;20979;59.850;10.660;2023-09-08T09:24:31;9.53;;;8.53;;
8982;SDS011;20979;59.850;10.660;2023-09-08T09:27:14;8.57;;;7.70;;
8982;SDS011;20979;59.850;10.660;2023-09-08T09:29:47;10.47;;;8.30;;
8982;SDS011;20979;59.850;10.660;2023-09-08T09:32:16;9.77;;;8.10;;
8982;SDS011;20979;59.850;10.660;2023-09-08T09:34:59;9.27;;;7.93;;
8982;SDS011;20979;59.850;10.660;2023-09-08T09:37:29;11.03;;;8.50;;
8982;SDS011;20979;59.850;10.660;2023-09-08T09:39:57;9.03;;;7.93;;
8982;SDS011;20979;59.850;10.660;2023-09-08T09:42:37;9.40;;;8.27;;
8982;SDS011;20979;59.850;10.660;2023-09-08T09:45:08;10.37;;;9.10;;
8982;SDS011;20979;59.850;10.660;2023-09-08T09:47:54;9.43;;;7.97;;
8982;SDS011;20979;59.850;10.660;2023-09-08T09:50:33;9.07;;;8.17;;
8982;SDS011;20979;59.850;10.660;2023-09-08T09:53:10;9.53;;;8.33;;
8982;SDS011;20979;59.850;10.660;2023-09-08T09:55:43;9.50;;;8.50;;
8982;SDS011;20979;59.850;10.660;2023-09-08T09:58:22;9.00;;;8.10;;
8982;SDS011;20979;59.850;10.660;2023-09-08T10:06:36;10.73;;;8.50;;
8982;SDS011;20979;59.850;10.660;2023-09-08T10:09:11;8.77;;;7.87;;
8982;SDS011;20979;59.850;10.660;2023-09-08T10:11:42;8.57;;;7.67;;
8982;SDS011;20979;59.850;10.660;2023-09-08T10:14:15;8.97;;;8.03;;
8982;SDS011;20979;59.850;10.660;2023-09-08T10:16:43;9.93;;;8.00;;
8982;SDS011;20979;59.850;10.660;2023-09-08T10:19:28;8.87;;;7.23;;
8982;SDS011;20979;59.850;10.660;2023-09-08T10:24:55;10.17;;;8.30;;
8982;SDS011;20979;59.850;10.660;2023-09-08T10:27:45;8.83;;;7.93;;
8982;SDS011;20979;59.850;10.660;2023-09-08T10:30:30;8.93;;;8.03;;
8982;SDS011;20979;59.850;10.660;2023-09-08T10:33:02;9.53;;;8.53;;
8982;SDS011;20979;59.850;10.660;2023-09-08T10:35:30;9.53;;;8.47;;
8982;SDS011;20979;59.850;10.660;2023-09-08T10:38:27;9.90;;;8.07;;
8982;SDS011;20979;59.850;10.660;2023-09-08T10:41:31;9.37;;;8.43;;
8982;SDS011;20979;59.850;10.660;2023-09-08T10:44:02;9.50;;;8.57;;
8982;SDS011;20979;59.850;10.660;2023-09-08T10:46:32;10.03;;;8.40;;
8982;SDS011;20979;59.850;10.660;2023-09-08T10:49:06;9.43;;;8.53;;
8982;SDS011;20979;59.850;10.660;2023-09-08T10:51:52;10.37;;;8.73;;
8982;SDS011;20979;59.850;10.660;2023-09-08T10:57:14;11.17;;;8.50;;
8982;SDS011;20979;59.850;10.660;2023-09-08T10:59:44;9.87;;;8.87;;
8982;SDS011;20979;59.850;10.660;2023-09-08T11:07:39;11.48;;;9.52;;
8982;SDS011;20979;59.850;10.660;2023-09-08T11:10:07;10.67;;;9.53;;
8982;SDS011;20979;59.850;10.660;2023-09-08T11:12:55;9.67;;;8.67;;
8982;SDS011;20979;59.850;10.660;2023-09-08T11:15:22;9.13;;;8.17;;
8982;SDS011;20979;59.850;10.660;2023-09-08T11:18:02;9.93;;;8.33;;
8982;SDS011;20979;59.850;10.660;2023-09-08T11:20:38;11.73;;;8.43;;
8982;SDS011;20979;59.850;10.660;2023-09-08T11:23:06;9.93;;;8.43;;
8982;SDS011;20979;59.850;10.660;2023-09-08T11:25:36;9.43;;;8.43;;
8982;SDS011;20979;59.850;10.660;2023-09-08T11:28:27;10.57;;;9.27;;
8982;SDS011;20979;59.850;10.660;2023-09-08T11:31:00;11.57;;;9.43;;
8982;SDS011;20979;59.850;10.660;2023-09-08T11:33:37;11.83;;;8.97;;
8982;SDS011;20979;59.850;10.660;2023-09-08T11:36:11;11.90;;;9.03;;
8982;SDS011;20979;59.850;10.660;2023-09-08T11:38:49;10.77;;;8.30;;
8982;SDS011;20979;59.850;10.660;2023-09-08T11:41:19;10.73;;;9.00;;
8982;SDS011;20979;59.850;10.660;2023-09-08T11:43:58;10.17;;;8.77;;
8982;SDS011;20979;59.850;10.660;2023-09-08T11:46:37;9.97;;;8.33;;
8982;SDS011;20979;59.850;10.660;2023-09-08T11:49:24;10.07;;;8.77;;
8982;SDS011;20979;59.850;10.660;2023-09-08T11:52:08;9.47;;;8.47;;
8982;SDS011;20979;59.850;10.660;2023-09-08T11:57:39;11.87;;;9.40;;
8982;SDS011;20979;59.850;10.660;2023-09-08T12:00:26;10.83;;;9.10;;
8982;SDS011;20979;59.850;10.660;2023-09-08T12:02:56;11.40;;;9.43;;
8982;SDS011;20979;59.850;10.660;2023-09-08T12:05:41;14.07;;;9.75;;
8982;SDS011;20979;59.850;10.660;2023-09-08T12:08:13;12.70;;;9.80;;
8982;SDS011;20979;59.850;10.660;2023-09-08T12:10:49;11.07;;;8.68;;
8982;SDS011;20979;59.850;10.660;2023-09-08T12:13:20;10.40;;;9.30;;
8982;SDS011;20979;59.850;10.660;2023-09-08T12:16:02;11.03;;;9.60;;
8982;SDS011;20979;59.850;10.660;2023-09-08T12:21:28;11.67;;;8.80;;
8982;SDS011;20979;59.850;10.660;2023-09-08T12:23:58;10.80;;;9.67;;
8982;SDS011;20979;59.850;10.660;2023-09-08T12:26:26;10.77;;;9.70;;
8982;SDS011;20979;59.850;10.660;2023-09-08T12:28:55;10.87;;;8.90;;
8982;SDS011;20979;59.850;10.660;2023-09-08T12:31:24;11.53;;;9.53;;
8982;SDS011;20979;59.850;10.660;2023-09-08T12:33:54;9.67;;;8.67;;
8982;SDS011;20979;59.850;10.660;2023-09-08T12:36:46;10.20;;;8.30;;
8982;SDS011;20979;59.850;10.660;2023-09-08T12:39:25;11.40;;;9.67;;
8982;SDS011;20979;59.850;10.660;2023-09-08T12:41:59;10.17;;;9.07;;
8982;SDS011;20979;59.850;10.660;2023-09-08T12:44:34;10.07;;;8.90;;
8982;SDS011;20979;59.850;10.660;2023-09-08T12:47:18;9.33;;;8.10;;
8982;SDS011;20979;59.850;10.660;2023-09-08T12:52:30;10.85;;;8.48;;
8982;SDS011;20979;59.850;10.660;2023-09-08T12:54:58;9.30;;;7.88;;
8982;SDS011;20979;59.850;10.660;2023-09-08T12:57:25;8.88;;;7.97;;
8982;SDS011;20979;59.850;10.660;2023-09-08T12:59:52;8.88;;;7.95;;
8982;SDS011;20979;59.850;10.660;2023-09-08T13:02:21;7.50;;;6.63;;
8982;SDS011;20979;59.850;10.660;2023-09-08T13:04:49;7.80;;;7.05;;
8982;SDS011;20979;59.850;10.660;2023-09-08T13:07:17;6.90;;;6.22;;
8982;SDS011;20979;59.850;10.660;2023-09-08T13:09:44;8.93;;;6.43;;
8982;SDS011;20979;59.850;10.660;2023-09-08T13:12:11;6.80;;;6.15;;
8982;SDS011;20979;59.850;10.660;2023-09-08T13:14:39;6.38;;;5.78;;
8982;SDS011;20979;59.850;10.660;2023-09-08T13:17:08;6.20;;;5.70;;
8982;SDS011;20979;59.850;10.660;2023-09-08T13:19:37;6.88;;;6.18;;
8982;SDS011;20979;59.850;10.660;2023-09-08T13:22:16;7.15;;;6.45;;
8982;SDS011;20979;59.850;10.660;2023-09-08T13:24:46;6.80;;;6.20;;
8982;SDS011;20979;59.850;10.660;2023-09-08T13:27:13;6.50;;;5.90;;
8982;SDS011;20979;59.850;10.660;2023-09-08T13:29:50;6.55;;;5.88;;
8982;SDS011;20979;59.850;10.660;2023-09-08T13:32:19;8.27;;;6.63;;
8982;SDS011;20979;59.850;10.660;2023-09-08T13:34:49;9.77;;;6.60;;
8982;SDS011;20979;59.850;10.660;2023-09-08T13:37:16;7.60;;;6.30;;
8982;SDS011;20979;59.850;10.660;2023-09-08T13:40:01;6.85;;;6.25;;
8982;SDS011;20979;59.850;10.660;2023-09-08T13:42:29;6.95;;;6.35;;
8982;SDS011;20979;59.850;10.660;2023-09-08T13:45:05;7.73;;;5.93;;
8982;SDS011;20979;59.850;10.660;2023-09-08T13:47:35;6.80;;;6.20;;
8982;SDS011;20979;59.850;10.660;2023-09-08T13:50:06;7.17;;;6.47;;
8982;SDS011;20979;59.850;10.660;2023-09-08T13:52:34;7.35;;;6.75;;
8982;SDS011;20979;59.850;10.660;2023-09-08T13:55:06;7.47;;;6.78;;
8982;SDS011;20979;59.850;10.660;2023-09-08T13:57:38;7.10;;;6.43;;
8982;SDS011;20979;59.850;10.660;2023-09-08T14:00:19;7.25;;;6.55;;
8982;SDS011;20979;59.850;10.660;2023-09-08T14:02:50;6.68;;;6.07;;
8982;SDS011;20979;59.850;10.660;2023-09-08T14:05:19;6.80;;;6.15;;
8982;SDS011;20979;59.850;10.660;2023-09-08T14:07:46;8.43;;;6.63;;
8982;SDS011;20979;59.850;10.660;2023-09-08T14:10:14;6.80;;;6.15;;
8982;SDS011;20979;59.850;10.660;2023-09-08T14:12:41;6.15;;;5.55;;
8982;SDS011;20979;59.850;10.660;2023-09-08T14:15:09;6.40;;;5.80;;
8982;SDS011;20979;59.850;10.660;2023-09-08T14:17:44;6.07;;;5.57;;
8982;SDS011;20979;59.850;10.660;2023-09-08T14:20:12;6.40;;;5.90;;
8982;SDS011;20979;59.850;10.660;2023-09-08T14:22:40;5.75;;;5.25;;
8982;SDS011;20979;59.850;10.660;2023-09-08T14:25:08;6.25;;;5.47;;
8982;SDS011;20979;59.850;10.660;2023-09-08T14:27:36;5.82;;;5.32;;
8982;SDS011;20979;59.850;10.660;2023-09-08T14:30:06;9.60;;;7.70;;
8982;SDS011;20979;59.850;10.660;2023-09-08T14:32:34;10.90;;;7.80;;
8982;SDS011;20979;59.850;10.660;2023-09-08T14:35:01;7.63;;;6.82;;
8982;SDS011;20979;59.850;10.660;2023-09-08T14:37:29;8.25;;;7.47;;
8982;SDS011;20979;59.850;10.660;2023-09-08T14:39:59;8.02;;;7.22;;
8982;SDS011;20979;59.850;10.660;2023-09-08T14:42:29;8.02;;;7.22;;
8982;SDS011;20979;59.850;10.660;2023-09-08T14:44:58;7.80;;;7.00;;
8982;SDS011;20979;59.850;10.660;2023-09-08T14:47:25;8.25;;;7.45;;
8982;SDS011;20979;59.850;10.660;2023-09-08T14:49:52;9.38;;;8.20;;
8982;SDS011;20979;59.850;10.660;2023-09-08T14:52:22;9.13;;;8.25;;
8982;SDS011;20979;59.850;10.660;2023-09-08T14:54:56;8.30;;;7.50;;
8982;SDS011;20979;59.850;10.660;2023-09-08T14:57:25;7.80;;;7.18;;
8982;SDS011;20979;59.850;10.660;2023-09-08T14:59:56;8.52;;;7.65;;
8982;SDS011;20979;59.850;10.660;2023-09-08T15:02:23;9.15;;;8.20;;
8982;SDS011;20979;59.850;10.660;2023-09-08T15:04:50;8.23;;;7.43;;
8982;SDS011;20979;59.850;10.660;2023-09-08T15:07:18;9.18;;;8.10;;
8982;SDS011;20979;59.850;10.660;2023-09-08T15:09:45;8.60;;;7.75;;
8982;SDS011;20979;59.850;10.660;2023-09-08T15:12:12;8.43;;;7.60;;
8982;SDS011;20979;59.850;10.660;2023-09-08T15:14:40;8.50;;;7.68;;
8982;SDS011;20979;59.850;10.660;2023-09-08T15:17:08;8.00;;;7.30;;
8982;SDS011;20979;59.850;10.660;2023-09-08T15:19:35;7.63;;;6.93;;
8982;SDS011;20979;59.850;10.660;2023-09-08T15:22:03;7.80;;;7.00;;
8982;SDS011;20979;59.850;10.660;2023-09-08T15:24:30;8.82;;;7.90;;
8982;SDS011;20979;59.850;10.660;2023-09-08T15:26:58;11.57;;;9.57;;
8982;SDS011;20979;59.850;10.660;2023-09-08T15:29:27;11.88;;;9.98;;
8982;SDS011;20979;59.850;10.660;2023-09-08T15:31:56;12.27;;;10.20;;
8982;SDS011;20979;59.850;10.660;2023-09-08T15:34:23;13.02;;;10.23;;
8982;SDS011;20979;59.850;10.660;2023-09-08T15:36:51;12.70;;;10.80;;
8982;SDS011;20979;59.850;10.660;2023-09-08T15:39:18;11.30;;;10.10;;
8982;SDS011;20979;59.850;10.660;2023-09-08T15:41:46;14.13;;;12.20;;
8982;SDS011;20979;59.850;10.660;2023-09-08T15:44:13;13.35;;;11.60;;
8982;SDS011;20979;59.850;10.660;2023-09-08T15:46:40;11.68;;;9.07;;
8982;SDS011;20979;59.850;10.660;2023-09-08T15:49:09;12.73;;;11.27;;
8982;SDS011;20979;59.850;10.660;2023-09-08T15:51:36;15.10;;;11.57;;
8982;SDS011;20979;59.850;10.660;2023-09-08T15:54:04;17.92;;;13.80;;
8982;SDS011;20979;59.850;10.660;2023-09-08T15:56:31;18.00;;;13.93;;
8982;SDS011;20979;59.850;10.660;2023-09-08T15:59:06;16.13;;;13.30;;
8982;SDS011;20979;59.850;10.660;2023-09-08T16:02:21;16.73;;;13.07;;
8982;SDS011;20979;59.850;10.660;2023-09-08T16:04:39;15.43;;;13.03;;
8982;SDS011;20979;59.850;10.660;2023-09-08T16:07:09;17.23;;;13.93;;
8982;SDS011;20979;59.850;10.660;2023-09-08T16:09:37;16.52;;;13.00;;
8982;SDS011;20979;59.850;10.660;2023-09-08T16:12:18;15.77;;;13.13;;
8982;SDS011;20979;59.850;10.660;2023-09-08T16:15:03;14.13;;;12.60;;
8982;SDS011;20979;59.850;10.660;2023-09-08T16:17:44;15.80;;;12.07;;
8982;SDS011;20979;59.850;10.660;2023-09-08T16:20:27;15.82;;;12.68;;
8982;SDS011;20979;59.850;10.660;2023-09-08T16:23:01;17.95;;;13.23;;
8982;SDS011;20979;59.850;10.660;2023-09-08T16:25:29;14.48;;;11.95;;
8982;SDS011;20979;59.850;10.660;2023-09-08T16:27:56;14.57;;;11.80;;
8982;SDS011;20979;59.850;10.660;2023-09-08T16:30:34;13.30;;;11.80;;